createdAt,value
2022-11-23T00:01:21.905Z,73.76
2022-11-23T00:03:50.596Z,73.97
2022-11-23T00:06:17.789Z,73.92
2022-11-23T00:08:44.446Z,73.99
2022-11-23T00:11:11.257Z,73.40
2022-11-23T00:13:40.431Z,73.69
2022-11-23T00:16:08.883Z,73.53
2022-11-23T00:18:35.712Z,74.39
2022-11-23T00:21:09.544Z,73.64
2022-11-23T00:23:36.667Z,73.27
2022-11-23T00:26:04.126Z,74.52
2022-11-23T00:28:30.737Z,74.49
2022-11-23T00:30:57.637Z,74.14
2022-11-23T00:33:24.191Z,73.32
2022-11-23T00:36:01.068Z,73.51
2022-11-23T00:38:28.653Z,74.16
2022-11-23T00:41:06.621Z,74.97
2022-11-23T00:43:33.517Z,74.45
2022-11-23T00:46:08.772Z,74.45
2022-11-23T00:48:35.599Z,74.79
2022-11-23T00:51:04.139Z,75.31
2022-11-23T00:53:30.804Z,75.97
2022-11-23T00:55:57.865Z,75.14
2022-11-23T00:58:25.187Z,74.48
2022-11-23T01:01:00.914Z,74.44
2022-11-23T01:03:29.065Z,74.68
2022-11-23T01:05:55.933Z,75.36
2022-11-23T01:08:22.403Z,74.49
2022-11-23T01:10:48.801Z,74.37
2022-11-23T01:13:15.412Z,73.84
2022-11-23T01:15:49.277Z,73.74
2022-11-23T01:18:15.731Z,74.41
2022-11-23T01:20:42.134Z,73.89
2022-11-23T01:23:08.548Z,73.97
2022-11-23T01:25:36.486Z,73.88
2022-11-23T01:28:03.166Z,74.00
2022-11-23T01:30:29.585Z,74.33
2022-11-23T01:32:56.046Z,74.43
2022-11-23T01:35:22.694Z,74.96
2022-11-23T01:37:49.168Z,74.56
2022-11-23T01:40:15.949Z,74.39
2022-11-23T01:43:00.500Z,73.94
2022-11-23T01:45:55.732Z,74.03
2022-11-23T01:48:29.876Z,73.95
2022-11-23T01:50:59.072Z,73.72
2022-11-23T01:53:27.359Z,74.47
2022-11-23T01:55:57.705Z,74.67
2022-11-23T01:58:26.587Z,73.53
2022-11-23T02:00:53.163Z,73.27
2022-11-23T02:03:19.953Z,73.31
2022-11-23T02:09:31.260Z,74.50
2022-11-23T02:11:58.609Z,73.93
2022-11-23T02:14:25.768Z,72.98
2022-11-23T02:16:52.235Z,73.29
2022-11-23T02:19:38.783Z,73.02
2022-11-23T02:22:12.461Z,73.44
2022-11-23T02:24:45.196Z,74.19
2022-11-23T02:27:11.728Z,73.54
2022-11-23T02:29:38.265Z,72.94
2022-11-23T02:32:05.030Z,73.01
2022-11-23T02:34:31.447Z,73.14
2022-11-23T02:36:57.975Z,73.09
2022-11-23T02:39:40.628Z,72.60
2022-11-23T02:42:07.053Z,73.13
2022-11-23T02:44:51.300Z,73.59
2022-11-23T02:47:17.752Z,74.46
2022-11-23T02:49:47.569Z,74.47
2022-11-23T02:52:14.339Z,75.33
2022-11-23T02:54:40.859Z,74.68
2022-11-23T02:57:08.165Z,74.16
2022-11-23T02:59:34.829Z,73.86
2022-11-23T03:02:02.650Z,73.43
2022-11-23T03:04:29.121Z,72.98
2022-11-23T03:06:56.005Z,73.42
2022-11-23T03:09:23.087Z,73.36
2022-11-23T03:11:49.627Z,73.83
2022-11-23T03:14:16.419Z,73.46
2022-11-23T03:16:42.889Z,73.69
2022-11-23T03:19:09.373Z,74.08
2022-11-23T03:21:36.812Z,74.18
2022-11-23T03:24:03.405Z,74.07
2022-11-23T03:26:29.830Z,73.99
2022-11-23T03:28:56.293Z,74.14
2022-11-23T03:31:22.770Z,74.96
2022-11-23T03:33:49.179Z,74.73
2022-11-23T03:36:15.580Z,74.21
2022-11-23T03:38:42.115Z,73.62
2022-11-23T03:41:09.344Z,74.58
2022-11-23T03:43:35.815Z,74.46
2022-11-23T03:46:02.321Z,73.74
2022-11-23T03:48:28.763Z,73.90
2022-11-23T03:50:55.157Z,73.56
2022-11-23T03:53:21.590Z,73.26
2022-11-23T03:55:48.050Z,73.10
2022-11-23T03:58:15.004Z,73.01
2022-11-23T04:00:41.747Z,73.17
2022-11-23T04:03:08.282Z,73.36
2022-11-23T04:05:34.730Z,73.44
2022-11-23T04:08:01.478Z,73.54
2022-11-23T04:10:28.088Z,73.50
2022-11-23T04:12:54.537Z,73.52
2022-11-23T04:15:21.081Z,73.60
2022-11-23T04:17:48.067Z,73.31
2022-11-23T04:20:14.981Z,73.42
2022-11-23T04:22:41.451Z,72.60
2022-11-23T04:25:08.356Z,72.70
2022-11-23T04:27:34.762Z,74.03
2022-11-23T04:30:01.265Z,73.82
2022-11-23T04:32:27.946Z,73.39
2022-11-23T04:34:54.401Z,73.47
2022-11-23T04:37:20.849Z,73.90
2022-11-23T04:39:47.587Z,74.12
2022-11-23T04:42:14.458Z,74.63
2022-11-23T04:44:40.943Z,74.76
2022-11-23T04:47:07.564Z,73.93
2022-11-23T04:49:34.252Z,74.25
2022-11-23T04:52:00.995Z,73.47
2022-11-23T04:54:27.461Z,73.99
2022-11-23T04:56:54.289Z,74.37
2022-11-23T04:59:22.176Z,74.71
2022-11-23T05:01:49.478Z,73.88
2022-11-23T05:04:17.864Z,73.94
2022-11-23T05:06:45.113Z,74.77
2022-11-23T05:09:11.913Z,75.11
2022-11-23T05:11:38.491Z,73.83
2022-11-23T05:14:05.137Z,73.18
2022-11-23T05:16:31.675Z,72.91
2022-11-23T05:18:58.128Z,73.36
2022-11-23T05:21:24.638Z,74.02
2022-11-23T05:23:51.254Z,73.48
2022-11-23T05:26:17.715Z,73.72
2022-11-23T05:28:44.132Z,73.60
2022-11-23T05:31:10.675Z,73.18
2022-11-23T05:33:37.362Z,73.21
2022-11-23T05:36:04.039Z,73.64
2022-11-23T05:38:30.497Z,73.83
2022-11-23T05:40:56.904Z,73.31
2022-11-23T05:43:23.377Z,73.88
2022-11-23T05:45:49.863Z,74.12
2022-11-23T05:48:16.490Z,74.11
2022-11-23T05:50:42.938Z,73.45
2022-11-23T05:53:10.052Z,73.51
2022-11-23T05:55:36.526Z,72.81
2022-11-23T05:58:03.869Z,72.90
2022-11-23T06:00:30.611Z,72.10
2022-11-23T06:03:03.346Z,74.13
2022-11-23T06:05:30.096Z,74.07
2022-11-23T06:07:56.559Z,73.30
2022-11-23T06:10:23.007Z,73.11
2022-11-23T06:12:50.103Z,73.51
2022-11-23T06:15:17.097Z,74.32
2022-11-23T06:17:43.620Z,75.02
2022-11-23T06:20:10.538Z,73.96
2022-11-23T06:22:36.969Z,73.67
2022-11-23T06:25:03.494Z,72.77
2022-11-23T06:27:29.947Z,72.50
2022-11-23T06:29:56.395Z,73.63
2022-11-23T06:32:22.974Z,73.91
2022-11-23T06:34:49.413Z,74.14
2022-11-23T06:37:15.810Z,73.97
2022-11-23T06:39:42.253Z,74.02
2022-11-23T06:42:37.129Z,73.16
2022-11-23T06:44:55.353Z,72.95
2022-11-23T06:47:26.087Z,73.29
2022-11-23T06:49:53.183Z,73.06
2022-11-23T06:52:20.005Z,72.75
2022-11-23T06:54:47.132Z,72.83
2022-11-23T06:57:13.676Z,73.13
2022-11-23T06:59:44.491Z,73.19
2022-11-23T07:02:12.179Z,72.96
2022-11-23T07:04:38.626Z,72.69
2022-11-23T07:07:05.252Z,73.35
2022-11-23T07:09:32.035Z,72.88
2022-11-23T07:11:58.920Z,72.58
2022-11-23T07:14:25.488Z,72.04
2022-11-23T07:16:51.967Z,72.12
2022-11-23T07:19:18.482Z,72.47
2022-11-23T07:21:45.711Z,72.66
2022-11-23T07:24:12.254Z,73.30
2022-11-23T07:26:38.651Z,72.82
2022-11-23T07:29:05.086Z,72.36
2022-11-23T07:31:32.251Z,72.21
2022-11-23T07:33:58.711Z,72.86
2022-11-23T07:36:25.149Z,72.46
2022-11-23T07:38:51.658Z,71.44
2022-11-23T07:41:18.327Z,72.65
2022-11-23T07:43:44.807Z,72.31
2022-11-23T07:46:11.257Z,72.13
2022-11-23T07:48:37.867Z,72.12
2022-11-23T07:51:04.500Z,71.63
2022-11-23T07:53:30.982Z,71.07
2022-11-23T07:56:01.005Z,71.38
2022-11-23T07:58:27.566Z,71.51
2022-11-23T08:00:54.113Z,71.88
2022-11-23T08:03:27.744Z,71.57
2022-11-23T08:05:54.837Z,71.70
2022-11-23T08:08:21.277Z,71.43
2022-11-23T08:10:52.971Z,72.02
2022-11-23T08:13:20.378Z,71.90
2022-11-23T08:15:53.416Z,71.01
2022-11-23T08:18:20.792Z,70.64
2022-11-23T08:20:47.238Z,70.67
2022-11-23T08:23:13.696Z,70.58
2022-11-23T08:25:40.127Z,70.67
2022-11-23T08:28:06.632Z,70.23
2022-11-23T08:30:34.544Z,71.00
2022-11-23T08:33:05.861Z,70.29
2022-11-23T08:35:36.936Z,69.61
2022-11-23T08:38:07.866Z,69.84
2022-11-23T08:40:35.157Z,69.80
2022-11-23T08:43:01.699Z,70.01
2022-11-23T08:45:28.599Z,70.50
2022-11-23T08:47:59.624Z,69.82
2022-11-23T08:50:26.122Z,71.27
2022-11-23T08:52:57.033Z,70.84
2022-11-23T08:55:24.555Z,70.18
2022-11-23T08:57:50.992Z,69.79
2022-11-23T09:00:17.797Z,69.66
2022-11-23T09:02:44.234Z,69.80
2022-11-23T09:05:11.383Z,70.05
2022-11-23T09:07:37.883Z,68.88
2022-11-23T09:10:04.911Z,68.63
2022-11-23T09:12:31.336Z,69.37
2022-11-23T09:14:58.041Z,69.77
2022-11-23T09:17:24.562Z,70.18
2022-11-23T09:19:51.522Z,68.70
2022-11-23T09:22:17.965Z,68.90
2022-11-23T09:24:44.463Z,69.13
2022-11-23T09:27:10.991Z,68.70
2022-11-23T09:29:37.462Z,68.65
2022-11-23T09:32:04.029Z,66.76
2022-11-23T09:34:30.620Z,65.20
2022-11-23T09:36:57.988Z,63.54
2022-11-23T09:39:24.531Z,60.94
2022-11-23T09:42:13.526Z,60.35
2022-11-23T09:44:56.436Z,59.00
2022-11-23T09:48:00.973Z,58.64
2022-11-23T09:50:34.300Z,56.25
2022-11-23T09:53:07.620Z,57.53
2022-11-23T09:55:39.849Z,57.40
2022-11-23T09:58:10.474Z,56.64
2022-11-23T10:01:04.591Z,56.19
2022-11-23T10:03:43.901Z,55.15
2022-11-23T10:06:23.867Z,53.16
2022-11-23T10:09:27.744Z,53.04
2022-11-23T10:12:05.238Z,52.93
2022-11-23T10:14:50.697Z,51.72
2022-11-23T10:17:43.743Z,51.94
2022-11-23T10:20:38.622Z,51.76
2022-11-23T10:23:17.415Z,50.52
2022-11-23T10:25:52.438Z,50.24
2022-11-23T10:28:22.411Z,50.31
2022-11-23T10:30:55.337Z,52.59
2022-11-23T10:33:37.813Z,53.20
2022-11-23T10:36:04.380Z,54.14
2022-11-23T10:38:32.632Z,53.55
2022-11-23T10:41:09.176Z,54.47
2022-11-23T10:43:38.343Z,53.67
2022-11-23T10:46:25.273Z,55.25
2022-11-23T10:48:53.395Z,55.07
2022-11-23T10:56:47.651Z,57.41
2022-11-23T10:59:38.844Z,57.79
2022-11-23T11:02:05.317Z,57.82
2022-11-23T11:04:32.060Z,56.96
2022-11-23T11:07:31.237Z,57.22
2022-11-23T11:10:04.081Z,58.30
2022-11-23T11:12:34.399Z,56.87
2022-11-23T11:15:12.068Z,55.21
2022-11-23T11:17:40.945Z,56.20
2022-11-23T11:20:33.314Z,56.02
2022-11-23T11:23:03.902Z,59.66
2022-11-23T11:25:36.165Z,59.05
2022-11-23T11:28:06.312Z,57.33
2022-11-23T11:30:45.913Z,56.39
2022-11-23T11:33:19.978Z,56.01
2022-11-23T11:35:51.782Z,57.84
2022-11-23T11:38:18.166Z,55.86
2022-11-23T11:40:49.870Z,55.13
2022-11-23T11:43:22.824Z,58.16
2022-11-23T11:48:42.941Z,55.54
2022-11-23T11:51:28.296Z,54.99
2022-11-23T11:54:33.628Z,55.32
2022-11-23T12:27:36.807Z,56.98
2022-11-23T12:38:15.646Z,60.01
2022-11-23T12:41:29.975Z,60.92
2022-11-23T12:44:08.423Z,59.82
2022-11-23T12:46:58.588Z,59.83
2022-11-23T12:49:43.073Z,59.22
2022-11-23T12:52:31.515Z,59.01
2022-11-23T12:55:19.821Z,59.00
2022-11-23T12:57:58.597Z,59.47
2022-11-23T13:00:29.732Z,58.21
2022-11-23T13:02:56.119Z,58.95
2022-11-23T13:06:13.047Z,59.17
2022-11-23T13:08:54.543Z,59.00
2022-11-23T13:11:39.334Z,59.73
2022-11-23T13:14:14.668Z,59.52
2022-11-23T13:16:57.679Z,59.47
2022-11-23T13:19:53.832Z,60.28
2022-11-23T13:22:21.947Z,60.18
2022-11-23T13:25:27.698Z,59.40
2022-11-23T13:27:56.728Z,60.42
2022-11-23T13:33:37.841Z,59.65
2022-11-23T13:36:11.208Z,60.28
2022-11-23T13:38:40.250Z,61.07
2022-11-23T13:41:34.770Z,60.87
2022-11-23T13:44:24.261Z,60.96
2022-11-23T13:47:16.041Z,61.69
2022-11-23T13:49:46.156Z,61.73
2022-11-23T13:52:21.753Z,61.91
2022-11-23T13:55:10.607Z,63.05
2022-11-23T13:57:39.023Z,62.78
2022-11-23T14:00:43.193Z,63.46
2022-11-23T14:03:49.931Z,61.49
2022-11-23T14:06:35.011Z,61.62
2022-11-23T14:09:30.315Z,61.46
2022-11-23T14:12:12.036Z,61.71
2022-11-23T14:14:45.724Z,61.86
2022-11-23T14:17:27.432Z,61.78
2022-11-23T14:20:16.749Z,61.92
2022-11-23T14:22:49.085Z,61.91
2022-11-23T14:25:27.851Z,62.79
2022-11-23T14:28:07.991Z,63.60
2022-11-23T14:30:47.779Z,62.54
2022-11-23T14:33:32.952Z,62.63
2022-11-23T14:39:28.969Z,63.54
2022-11-23T14:42:00.632Z,63.86
2022-11-23T14:44:31.888Z,63.30
2022-11-23T14:47:06.782Z,63.49
2022-11-23T14:49:33.805Z,63.00
2022-11-23T14:52:02.434Z,63.47
2022-11-23T14:54:30.547Z,63.43
2022-11-23T14:57:00.405Z,64.28
2022-11-23T14:59:32.959Z,63.91
2022-11-23T15:02:13.595Z,63.87
2022-11-23T15:04:59.768Z,64.38
2022-11-23T15:07:29.990Z,65.15
2022-11-23T15:09:56.415Z,64.75
2022-11-23T15:12:26.284Z,64.71
2022-11-23T15:14:54.091Z,65.26
2022-11-23T15:17:22.136Z,65.06
2022-11-23T15:19:56.252Z,65.48
2022-11-23T15:22:24.492Z,65.15
2022-11-23T15:24:51.377Z,65.60
2022-11-23T15:27:25.482Z,65.45
2022-11-23T15:29:57.964Z,65.24
2022-11-23T15:32:33.239Z,65.80
2022-11-23T15:35:07.904Z,65.52
2022-11-23T15:37:43.550Z,65.80
2022-11-23T15:40:17.731Z,66.09
2022-11-23T15:42:46.750Z,65.69
2022-11-23T15:45:44.300Z,66.00
2022-11-23T15:48:26.745Z,65.68
2022-11-23T15:50:54.190Z,65.23
2022-11-23T15:53:49.115Z,65.51
2022-11-23T15:56:23.653Z,66.43
2022-11-23T15:58:52.160Z,65.77
2022-11-23T16:01:19.488Z,66.17
2022-11-23T16:03:52.456Z,66.66
2022-11-23T16:06:39.054Z,66.02
2022-11-23T16:09:54.462Z,66.44
2022-11-23T16:12:34.040Z,65.55
2022-11-23T16:15:32.822Z,65.71
2022-11-23T16:18:02.712Z,66.42
2022-11-23T16:20:29.896Z,66.83
2022-11-23T16:22:59.504Z,66.58
2022-11-23T16:25:31.759Z,66.69
2022-11-23T16:28:04.397Z,66.05
2022-11-23T16:30:43.305Z,66.80
2022-11-23T16:33:15.063Z,66.11
2022-11-23T16:35:41.560Z,66.10
2022-11-23T16:38:08.100Z,66.17
2022-11-23T16:40:34.770Z,66.31
2022-11-23T16:43:01.332Z,66.65
2022-11-23T16:45:27.873Z,67.14
2022-11-23T16:48:00.346Z,67.46
2022-11-23T16:50:31.653Z,67.16
2022-11-23T16:53:02.125Z,67.50
2022-11-23T16:55:28.555Z,66.80
2022-11-23T16:57:56.016Z,67.59
2022-11-23T17:00:23.491Z,67.75
2022-11-23T17:05:25.141Z,67.80
2022-11-23T17:07:51.884Z,68.62
2022-11-23T17:10:18.480Z,68.68
2022-11-23T17:12:52.684Z,68.56
2022-11-23T17:15:20.794Z,68.17
2022-11-23T17:17:47.235Z,68.41
2022-11-23T17:20:14.877Z,69.37
2022-11-23T17:22:41.382Z,69.09
2022-11-23T17:25:14.397Z,68.45
2022-11-23T17:27:42.239Z,68.44
2022-11-23T17:30:21.156Z,68.85
2022-11-23T17:32:49.120Z,68.70
2022-11-23T17:35:16.551Z,68.92
2022-11-23T17:37:43.265Z,68.88
2022-11-23T17:40:21.518Z,70.15
2022-11-23T17:42:48.199Z,69.78
2022-11-23T17:45:15.098Z,68.84
2022-11-23T17:47:43.945Z,68.29
2022-11-23T17:50:17.477Z,68.61
2022-11-23T17:52:47.830Z,68.36
2022-11-23T17:55:15.332Z,68.28
2022-11-23T17:57:42.112Z,67.70
2022-11-23T18:00:19.430Z,68.80
2022-11-23T18:02:46.176Z,68.43
2022-11-23T18:05:16.528Z,68.19
2022-11-23T18:07:48.544Z,68.64
2022-11-23T18:10:15.628Z,67.86
2022-11-23T18:12:44.442Z,67.78
2022-11-23T18:15:11.455Z,68.43
2022-11-23T18:17:37.907Z,67.90
2022-11-23T18:20:08.376Z,68.94
2022-11-23T18:22:35.709Z,68.92
2022-11-23T18:25:02.920Z,68.71
2022-11-23T18:27:32.038Z,69.52
2022-11-23T18:29:58.678Z,69.77
2022-11-23T18:32:25.154Z,68.98
2022-11-23T18:34:51.569Z,68.74
2022-11-23T18:37:17.998Z,69.44
2022-11-23T18:39:44.404Z,69.63
2022-11-23T18:42:10.986Z,69.40
2022-11-23T18:44:37.444Z,69.89
2022-11-23T18:47:04.018Z,69.82
2022-11-23T18:49:30.801Z,69.99
2022-11-23T18:51:57.445Z,69.55
2022-11-23T18:54:23.867Z,69.95
2022-11-23T18:56:50.332Z,70.16
2022-11-23T18:59:42.026Z,70.50
2022-11-23T19:02:04.579Z,71.27
2022-11-23T19:04:32.538Z,70.20
2022-11-23T19:06:59.221Z,70.12
2022-11-23T19:09:25.624Z,70.09
2022-11-23T19:11:53.254Z,70.60
2022-11-23T19:14:19.683Z,70.63
2022-11-23T19:16:46.089Z,70.78
2022-11-23T19:19:12.673Z,70.33
2022-11-23T19:21:39.258Z,71.03
2022-11-23T19:24:06.710Z,70.73
2022-11-23T19:26:36.702Z,70.76
2022-11-23T19:29:03.690Z,71.11
2022-11-23T19:31:31.113Z,70.14
2022-11-23T19:34:02.707Z,70.16
2022-11-23T19:36:30.002Z,70.49
2022-11-23T19:38:57.487Z,71.07
2022-11-23T19:41:29.574Z,71.25
2022-11-23T19:43:57.995Z,71.24
2022-11-23T19:46:25.018Z,70.81
2022-11-23T19:48:51.578Z,71.23
2022-11-23T19:51:20.002Z,71.62
2022-11-23T19:53:49.112Z,72.07
2022-11-23T19:56:25.195Z,71.75
2022-11-23T19:58:54.190Z,71.24
2022-11-23T20:01:22.778Z,71.88
2022-11-23T20:03:53.360Z,72.30
2022-11-23T20:06:24.040Z,71.72
2022-11-23T20:08:55.562Z,71.59
2022-11-23T20:11:21.910Z,71.36
2022-11-23T20:13:48.515Z,71.85
2022-11-23T20:16:17.540Z,72.38
2022-11-23T20:18:45.992Z,71.88
2022-11-23T20:21:14.489Z,71.89
2022-11-23T20:23:42.150Z,72.00
2022-11-23T20:26:11.038Z,71.94
2022-11-23T20:28:37.542Z,72.32
2022-11-23T20:31:05.637Z,72.27
2022-11-23T20:33:32.517Z,72.28
2022-11-23T20:36:09.450Z,72.16
2022-11-23T20:38:38.392Z,72.70
2022-11-23T20:41:26.451Z,72.37
2022-11-23T20:43:58.828Z,72.71
2022-11-23T20:46:53.828Z,72.38
2022-11-23T20:49:13.240Z,71.74
2022-11-23T20:51:39.681Z,72.23
2022-11-23T20:54:06.151Z,72.15
2022-11-23T20:56:32.744Z,72.42
2022-11-23T20:59:04.186Z,72.30
2022-11-23T21:01:30.824Z,72.04
2022-11-23T21:03:58.837Z,71.87
2022-11-23T21:06:27.049Z,71.80
2022-11-23T21:08:54.682Z,71.68
2022-11-23T21:11:44.611Z,72.07
2022-11-23T21:14:17.867Z,71.84
2022-11-23T21:16:58.635Z,72.38
2022-11-23T21:19:27.366Z,72.31
2022-11-23T21:21:54.080Z,72.29
2022-11-23T21:24:21.353Z,72.74
2022-11-23T21:26:48.432Z,72.31
2022-11-23T21:29:18.874Z,72.33
2022-11-23T21:31:47.039Z,71.44
2022-11-23T21:34:21.836Z,72.21
2022-11-23T21:36:48.589Z,71.63
2022-11-23T21:39:15.882Z,71.55
2022-11-23T21:41:42.458Z,71.42
2022-11-23T21:44:10.329Z,70.92
2022-11-23T21:46:38.731Z,71.54
2022-11-23T21:49:08.555Z,71.16
2022-11-23T21:51:36.291Z,71.35
2022-11-23T21:54:05.978Z,71.06
2022-11-23T21:56:33.369Z,71.08
2022-11-23T21:58:59.970Z,70.94
2022-11-23T22:01:31.560Z,70.97
2022-11-23T22:03:59.957Z,71.98
2022-11-23T22:06:26.468Z,71.50
2022-11-23T22:08:55.187Z,71.51
2022-11-23T22:11:32.279Z,71.07
2022-11-23T22:14:00.811Z,71.16
2022-11-23T22:16:28.800Z,71.40
2022-11-23T22:18:56.322Z,71.01
2022-11-23T22:21:24.897Z,71.64
2022-11-23T22:23:51.473Z,71.30
2022-11-23T22:26:19.465Z,71.91
2022-11-23T22:28:50.964Z,71.88
2022-11-23T22:31:18.645Z,71.62
2022-11-23T22:33:45.797Z,71.74
2022-11-23T22:36:20.119Z,71.23
2022-11-23T22:38:46.804Z,71.24
2022-11-23T22:41:15.736Z,72.10
2022-11-23T22:43:42.783Z,72.02
2022-11-23T22:46:18.152Z,71.57
2022-11-23T22:48:47.042Z,71.89
2022-11-23T22:51:19.162Z,72.53
2022-11-23T22:53:46.022Z,72.41
2022-11-23T22:56:17.387Z,72.25
2022-11-23T22:58:45.527Z,72.41
2022-11-23T23:01:17.024Z,72.53
2022-11-23T23:03:43.461Z,72.21
2022-11-23T23:06:16.803Z,72.38
2022-11-23T23:08:44.299Z,72.16
2022-11-23T23:11:11.092Z,72.53
2022-11-23T23:13:37.685Z,72.28
2022-11-23T23:16:06.846Z,72.40
2022-11-23T23:18:33.348Z,73.11
2022-11-23T23:21:01.442Z,72.30
2022-11-23T23:23:28.041Z,72.37
2022-11-23T23:25:54.722Z,72.37
2022-11-23T23:28:21.473Z,72.65
2022-11-23T23:30:48.006Z,72.59
2022-11-23T23:33:14.521Z,72.27
2022-11-23T23:35:41.108Z,72.43
2022-11-23T23:38:07.649Z,72.88
2022-11-23T23:40:34.120Z,72.63
2022-11-23T23:43:00.864Z,72.70
2022-11-23T23:45:27.354Z,72.66
2022-11-23T23:47:53.812Z,72.82
2022-11-23T23:50:20.214Z,72.84
2022-11-23T23:52:46.584Z,72.10
2022-11-23T23:55:12.977Z,71.87
2022-11-23T23:57:39.378Z,71.97
